world map with KOI marked

KOI - Airport

This information may not be accurate or current and is not valid for navigation or flight planning. No warranty of fitness for any purpose is made or implied.

flag of Scotlandflag of United Kingdom

Donate via PayPal

Additional information is available on the NEW Great Circle Mapper

Location
City:  Kirkwall, Orkney Isles, Scotland, United Kingdom
Name:Kirkwall Airport
ICAO / IATA:EGPA / KOI

Details
Type:Airport (Aerodrome, Airfield)
Use:Public/Civil
Latitude:58°57'28"N (58.957778)
Longitude:2°54'18"W (-2.904999)
Datum:WGS 1984
Elevation:50 ft (15 m)
Runways:3
Longest:4685 × 151 ft (1428 × 46 m)

Time
Timezone:UTC+0 (DST+3)
Local Time:

Weather
METAR:EGPA  041350Z 31011KT 9999 VCSH FEW009 SCT022 05/03 Q1005
TAF:EGPA  (expired)

Related Locations
Nearby:
Farthest:SZS: 11518 mi / 18537 km
Ryan's Creek, Stewart Island, STL, NZ

Find:

   beyond  
but within

Other Information
Maps:
Links:
Sources:

  


 


Great Circle Mapper   Great Circle Mapper
Great Circle Mapper FAQ   Great Circle Mapper FAQ
  Karl's Home Page
KLSē   KLSē Home
   GC on Facebook
Airlines of the World   Airlines of the World
Donate via PayPal


Copyright © 2004-2019, Karl L. Swartz. All rights reserved.
All trademarks mentioned herein belong to their respective owners.

Please see credits for attribution and copyright information.

Karl Swartz <karl@kls2.com>
  Powered by FreeBSD
Valid HTML 4.01!
Labeled with ICRA
hCard Microformat
Geo Microformat